Time;durP1;ratioP1;P1;durP2;ratioP2;P2;SDS_P1;SDS_P2;PMS_P1;PMS_P2;Temp;Humidity;BMP_temperature;BMP_pressure;BME280_temperature;BME280_humidity;BME280_pressure;Samples;Min_cycle;Max_cycle;Signal;HPM_P1;HPM_P2
2023/12/10 00:02:04;;;;;;;30.65;5.07;;;8.00;99.90;;;;;;5035591;28;20521;-66
2023/12/10 00:04:30;;;;;;;33.33;4.68;;;8.00;99.90;;;;;;5029142;28;20041;-66
2023/12/10 00:06:55;;;;;;;28.27;4.25;;;8.00;99.90;;;;;;5020963;28;20123;-66
2023/12/10 00:09:21;;;;;;;43.95;5.95;;;8.00;99.90;;;;;;5035910;28;20053;-67
2023/12/10 00:11:47;;;;;;;33.85;5.05;;;7.90;99.90;;;;;;5036323;28;20663;-66
2023/12/10 00:14:13;;;;;;;32.00;5.68;;;8.00;99.90;;;;;;5037634;28;20052;-66
2023/12/10 00:16:39;;;;;;;33.80;5.10;;;8.00;99.90;;;;;;5035199;28;20525;-67
2023/12/10 00:19:05;;;;;;;37.03;5.57;;;8.00;99.90;;;;;;5051254;28;20631;-66
2023/12/10 00:21:31;;;;;;;42.08;5.03;;;8.00;99.90;;;;;;5039199;28;20051;-66
2023/12/10 00:23:56;;;;;;;28.45;5.03;;;7.90;99.90;;;;;;5043114;28;20088;-66
2023/12/10 00:26:22;;;;;;;37.03;4.57;;;7.90;99.90;;;;;;5045620;28;20179;-66
2023/12/10 00:28:48;;;;;;;31.23;4.78;;;7.90;99.90;;;;;;5044823;28;20439;-66
2023/12/10 00:31:13;;;;;;;35.90;4.63;;;7.90;99.90;;;;;;5045018;28;20680;-66
2023/12/10 00:33:39;;;;;;;33.30;4.38;;;7.90;99.90;;;;;;5040868;28;20033;-66
2023/12/10 00:36:05;;;;;;;36.47;4.22;;;7.90;99.90;;;;;;5035739;28;20079;-66
2023/12/10 00:38:31;;;;;;;34.25;4.47;;;7.90;99.90;;;;;;5033522;28;20037;-65
2023/12/10 00:40:57;;;;;;;36.15;4.65;;;7.90;99.90;;;;;;5050913;28;20095;-67
2023/12/10 00:43:23;;;;;;;32.63;4.65;;;7.90;99.90;;;;;;5032496;28;20462;-66
2023/12/10 00:45:48;;;;;;;36.20;5.05;;;7.90;99.90;;;;;;5030439;28;20148;-66
2023/12/10 00:48:14;;;;;;;28.55;4.35;;;7.90;99.90;;;;;;5031674;28;20493;-66
2023/12/10 00:50:40;;;;;;;38.60;4.75;;;7.90;99.90;;;;;;5031358;28;20887;-65
2023/12/10 00:53:06;;;;;;;28.85;5.43;;;7.90;99.90;;;;;;5039106;28;20041;-66
2023/12/10 00:55:32;;;;;;;28.88;3.63;;;7.90;99.90;;;;;;5020475;28;20041;-65
2023/12/10 00:57:57;;;;;;;24.45;3.75;;;7.90;99.90;;;;;;5039279;28;20045;-66
2023/12/10 01:00:23;;;;;;;23.75;3.60;;;7.90;99.90;;;;;;5037973;28;20072;-66
2023/12/10 01:02:49;;;;;;;25.33;3.78;;;7.90;99.90;;;;;;5024686;28;20113;-65
2023/12/10 01:05:15;;;;;;;27.65;4.82;;;7.90;99.90;;;;;;5041014;28;20048;-65
2023/12/10 01:07:41;;;;;;;23.08;4.30;;;7.90;99.90;;;;;;5036798;28;20052;-65
2023/12/10 01:10:07;;;;;;;27.35;4.13;;;7.90;99.90;;;;;;5019165;28;20640;-66
2023/12/10 01:12:36;;;;;;;27.27;4.32;;;7.90;99.90;;;;;;5041504;28;20052;-66
2023/12/10 01:15:05;;;;;;;26.02;4.07;;;7.90;99.90;;;;;;5035713;28;20045;-65
2023/12/10 01:17:32;;;;;;;30.92;4.20;;;7.80;99.90;;;;;;5015577;28;20045;-65
2023/12/10 01:20:03;;;;;;;26.80;4.00;;;7.80;99.90;;;;;;5037263;28;20039;-65
2023/12/10 01:22:29;;;;;;;29.25;4.07;;;7.80;99.90;;;;;;5050120;28;20079;-65
2023/12/10 01:24:56;;;;;;;35.80;3.92;;;7.80;99.90;;;;;;5035393;28;20071;-65
2023/12/10 01:27:22;;;;;;;26.40;3.78;;;7.80;99.90;;;;;;5042102;28;20045;-66
2023/12/10 01:29:48;;;;;;;27.10;3.85;;;7.80;99.90;;;;;;5042919;28;20434;-66
2023/12/10 01:32:14;;;;;;;27.45;3.53;;;7.80;99.90;;;;;;5033218;28;20439;-66
2023/12/10 01:34:41;;;;;;;30.10;4.22;;;7.80;99.90;;;;;;5035224;28;20120;-65
2023/12/10 01:37:07;;;;;;;33.13;4.43;;;7.80;99.90;;;;;;5033504;28;20060;-65
2023/12/10 01:39:33;;;;;;;28.50;3.83;;;7.80;99.90;;;;;;5034660;28;20418;-65
2023/12/10 01:42:00;;;;;;;35.13;4.93;;;7.80;99.90;;;;;;5039499;28;20084;-65
2023/12/10 01:44:26;;;;;;;29.52;3.75;;;7.80;99.90;;;;;;5038891;28;20068;-66
2023/12/10 01:46:53;;;;;;;29.65;4.45;;;7.70;99.90;;;;;;5037745;28;20073;-67
2023/12/10 01:49:19;;;;;;;33.33;4.47;;;7.80;99.90;;;;;;5018812;28;20731;-66
2023/12/10 01:51:46;;;;;;;31.67;3.95;;;7.70;99.90;;;;;;5038303;28;20532;-65
2023/12/10 01:54:20;;;;;;;33.67;4.40;;;7.70;99.90;;;;;;5042466;28;20075;-65
2023/12/10 01:56:49;;;;;;;29.90;5.47;;;7.70;99.90;;;;;;5022325;28;20104;-65
2023/12/10 01:59:15;;;;;;;34.20;4.38;;;7.70;99.90;;;;;;5027251;28;20041;-65
2023/12/10 02:01:41;;;;;;;28.52;4.15;;;7.70;99.90;;;;;;5049181;28;20375;-65
2023/12/10 02:04:08;;;;;;;33.47;4.22;;;7.70;99.90;;;;;;5027344;28;20053;-65
2023/12/10 02:06:34;;;;;;;32.50;4.95;;;7.70;99.90;;;;;;5028952;28;20049;-66
2023/12/10 02:09:00;;;;;;;22.33;3.88;;;7.70;99.90;;;;;;5025114;28;20066;-66
2023/12/10 02:11:26;;;;;;;33.30;4.70;;;7.70;99.90;;;;;;5019110;28;20122;-66
2023/12/10 02:13:51;;;;;;;26.63;4.53;;;7.70;99.90;;;;;;5046260;28;20493;-67
2023/12/10 02:16:17;;;;;;;28.50;5.13;;;7.70;99.90;;;;;;5067089;28;20071;-65
2023/12/10 02:18:43;;;;;;;29.23;4.20;;;7.70;99.90;;;;;;5064499;28;20040;-66
2023/12/10 02:21:09;;;;;;;32.63;4.85;;;7.70;99.90;;;;;;5065272;28;20608;-65
2023/12/10 02:23:46;;;;;;;29.55;5.05;;;7.70;99.90;;;;;;5055468;28;20501;-66
2023/12/10 02:26:12;;;;;;;29.75;3.83;;;7.70;99.90;;;;;;5064927;28;20037;-66
2023/12/10 02:28:38;;;;;;;28.83;4.00;;;7.60;99.90;;;;;;5028620;28;20041;-66
2023/12/10 02:31:05;;;;;;;33.53;3.72;;;7.70;99.90;;;;;;5044211;28;20048;-66
2023/12/10 02:33:31;;;;;;;31.23;3.50;;;7.70;99.90;;;;;;5038457;28;20060;-66
2023/12/10 02:35:57;;;;;;;32.30;4.32;;;7.70;99.90;;;;;;5043265;28;20041;-66
2023/12/10 02:38:22;;;;;;;34.67;3.97;;;7.70;99.90;;;;;;5030952;28;21996;-66
2023/12/10 02:40:49;;;;;;;24.17;3.58;;;7.70;99.90;;;;;;5039992;28;20136;-66
2023/12/10 02:43:17;;;;;;;22.92;4.43;;;7.70;99.90;;;;;;5031181;28;20049;-66
2023/12/10 02:45:43;;;;;;;24.08;3.85;;;7.60;99.90;;;;;;5034464;28;20057;-66
2023/12/10 02:48:09;;;;;;;27.42;3.38;;;7.70;99.90;;;;;;5028953;28;20045;-67
2023/12/10 02:50:35;;;;;;;24.42;3.95;;;7.60;99.90;;;;;;5009208;28;20488;-66
2023/12/10 02:53:00;;;;;;;26.48;3.63;;;7.60;99.90;;;;;;5029493;28;20056;-66
2023/12/10 02:55:26;;;;;;;25.08;4.13;;;7.60;99.90;;;;;;5036507;28;20041;-66
2023/12/10 02:57:52;;;;;;;22.55;3.50;;;7.60;99.90;;;;;;5029531;28;20511;-66
2023/12/10 03:00:17;;;;;;;32.15;3.92;;;7.60;99.90;;;;;;5037702;28;20153;-66
2023/12/10 03:02:43;;;;;;;27.88;3.60;;;7.60;99.90;;;;;;5028342;28;20362;-66
2023/12/10 03:05:09;;;;;;;25.10;3.72;;;7.70;99.90;;;;;;5019266;28;20069;-66
2023/12/10 03:07:35;;;;;;;27.05;3.72;;;7.60;99.90;;;;;;5040116;28;20051;-66
2023/12/10 03:10:01;;;;;;;21.48;3.00;;;7.60;99.90;;;;;;5031262;28;20495;-66
2023/12/10 03:12:27;;;;;;;32.00;3.65;;;7.60;99.90;;;;;;5033425;28;20136;-66
2023/12/10 03:14:52;;;;;;;24.02;3.33;;;7.60;99.90;;;;;;5049642;28;20042;-65
2023/12/10 03:17:18;;;;;;;22.45;3.22;;;7.60;99.90;;;;;;5029758;28;20084;-65
2023/12/10 03:19:44;;;;;;;23.52;3.35;;;7.60;99.90;;;;;;5028926;28;20079;-66
2023/12/10 03:22:10;;;;;;;22.27;3.75;;;7.60;99.90;;;;;;5031120;28;20036;-66
2023/12/10 03:24:36;;;;;;;25.98;3.10;;;7.60;99.90;;;;;;5035028;28;20391;-66
2023/12/10 03:27:02;;;;;;;18.35;3.25;;;7.60;99.90;;;;;;5038769;28;20522;-66
2023/12/10 03:29:27;;;;;;;20.85;3.97;;;7.60;99.90;;;;;;5038861;28;20053;-66
2023/12/10 03:31:54;;;;;;;26.63;4.07;;;7.60;99.90;;;;;;5034721;28;20044;-66
2023/12/10 03:34:19;;;;;;;24.58;2.85;;;7.60;99.90;;;;;;5038869;28;20525;-65
2023/12/10 03:36:45;;;;;;;23.40;3.67;;;7.60;99.90;;;;;;5032373;28;20049;-66
2023/12/10 03:39:11;;;;;;;19.00;3.00;;;7.60;99.90;;;;;;5033725;28;20492;-66
2023/12/10 03:41:37;;;;;;;17.35;2.63;;;7.60;99.90;;;;;;5026985;28;20041;-66
2023/12/10 03:44:02;;;;;;;19.88;2.90;;;7.60;99.90;;;;;;5041702;28;20402;-66
2023/12/10 03:46:28;;;;;;;13.88;2.20;;;7.60;99.90;;;;;;5034913;28;20140;-66
2023/12/10 03:48:54;;;;;;;18.08;1.85;;;7.60;99.90;;;;;;5037192;28;20041;-66
2023/12/10 03:51:20;;;;;;;10.85;2.15;;;7.60;99.90;;;;;;5045813;28;20037;-68
2023/12/10 03:53:48;;;;;;;13.55;2.03;;;7.60;99.90;;;;;;5036683;28;20773;-68
2023/12/10 03:56:14;;;;;;;14.48;1.80;;;7.50;99.90;;;;;;5029584;28;20053;-67
2023/12/10 03:58:40;;;;;;;13.82;2.20;;;7.50;99.90;;;;;;5038210;28;20049;-67
2023/12/10 04:01:06;;;;;;;13.48;1.67;;;7.60;99.90;;;;;;5045286;28;20056;-67
2023/12/10 04:03:32;;;;;;;17.38;1.98;;;7.60;99.90;;;;;;5035747;28;20048;-67
2023/12/10 04:05:57;;;;;;;12.18;2.05;;;7.60;99.90;;;;;;5011514;28;20045;-66
2023/12/10 04:08:23;;;;;;;11.18;1.60;;;7.60;99.90;;;;;;5028721;28;20041;-66
2023/12/10 04:10:49;;;;;;;12.43;1.95;;;7.60;99.90;;;;;;5032025;28;20627;-67
2023/12/10 04:13:15;;;;;;;13.75;1.85;;;7.60;99.90;;;;;;5030178;28;20656;-67
2023/12/10 04:15:44;;;;;;;17.27;2.10;;;7.70;99.90;;;;;;5028636;28;20132;-67
2023/12/10 04:18:11;;;;;;;15.48;1.98;;;7.70;99.90;;;;;;5048288;28;20791;-67
2023/12/10 04:20:37;;;;;;;13.25;2.10;;;7.70;99.90;;;;;;5027542;28;20049;-67
2023/12/10 04:23:03;;;;;;;12.50;1.85;;;7.70;99.90;;;;;;5037262;28;22483;-67
2023/12/10 04:25:28;;;;;;;13.82;2.05;;;7.70;99.90;;;;;;5051096;28;20159;-67
2023/12/10 04:27:54;;;;;;;17.23;2.83;;;7.80;99.90;;;;;;5044883;28;20466;-67
2023/12/10 04:30:20;;;;;;;15.30;2.30;;;7.80;99.90;;;;;;5036005;28;20045;-67
2023/12/10 04:32:47;;;;;;;19.20;2.50;;;7.80;99.90;;;;;;5037219;28;20585;-67
2023/12/10 04:35:12;;;;;;;17.05;2.58;;;7.80;99.90;;;;;;5033580;28;20029;-68
2023/12/10 04:37:38;;;;;;;19.10;3.47;;;7.90;99.90;;;;;;5028007;28;20048;-67
2023/12/10 04:40:05;;;;;;;20.20;2.83;;;7.90;99.90;;;;;;5036561;28;20080;-67
2023/12/10 04:42:31;;;;;;;15.55;2.88;;;7.90;99.90;;;;;;5026964;28;20083;-67
2023/12/10 04:44:57;;;;;;;17.17;2.53;;;7.90;99.90;;;;;;5029136;28;20049;-67
2023/12/10 04:47:22;;;;;;;21.38;2.80;;;7.90;99.90;;;;;;5028556;28;20075;-67
2023/12/10 04:49:48;;;;;;;25.52;3.30;;;7.90;99.90;;;;;;5036020;28;20037;-67
2023/12/10 04:52:14;;;;;;;15.25;2.55;;;7.90;99.90;;;;;;5036267;28;20665;-67
2023/12/10 04:54:39;;;;;;;17.30;3.05;;;8.00;99.90;;;;;;5026769;28;20083;-67
2023/12/10 04:57:05;;;;;;;19.90;3.03;;;8.00;99.90;;;;;;5034607;28;20329;-66
2023/12/10 04:59:31;;;;;;;19.95;2.75;;;8.00;99.90;;;;;;5040124;28;20037;-67
2023/12/10 05:01:57;;;;;;;17.50;3.10;;;8.00;99.90;;;;;;5041755;28;20072;-67
2023/12/10 05:04:23;;;;;;;19.73;2.70;;;8.00;99.90;;;;;;5028104;28;20439;-67
2023/12/10 05:06:48;;;;;;;19.90;3.35;;;8.10;99.90;;;;;;5021614;28;20083;-67
2023/12/10 05:09:14;;;;;;;15.68;3.00;;;8.00;99.90;;;;;;5030025;28;20124;-68
2023/12/10 05:11:40;;;;;;;18.80;3.40;;;8.10;99.90;;;;;;5023999;28;20500;-67
2023/12/10 05:14:06;;;;;;;14.30;2.75;;;8.10;99.90;;;;;;5018975;28;20041;-69
2023/12/10 05:16:32;;;;;;;23.13;2.72;;;8.10;99.90;;;;;;5019059;28;20124;-68
2023/12/10 05:18:57;;;;;;;16.73;2.33;;;8.10;99.90;;;;;;5016646;28;20044;-69
2023/12/10 05:21:23;;;;;;;17.52;3.17;;;8.10;99.90;;;;;;5032017;28;20490;-68
2023/12/10 05:23:49;;;;;;;22.98;3.33;;;8.10;99.90;;;;;;5044992;28;20112;-67
2023/12/10 05:26:16;;;;;;;18.63;2.40;;;8.10;99.90;;;;;;5037545;28;20049;-68
2023/12/10 05:28:42;;;;;;;19.42;2.60;;;8.10;99.90;;;;;;5040792;28;20056;-69
2023/12/10 05:31:07;;;;;;;13.68;2.15;;;8.10;99.90;;;;;;5029755;28;20053;-69
2023/12/10 05:33:34;;;;;;;15.63;2.20;;;8.30;99.90;;;;;;5030724;28;20045;-68
2023/12/10 05:35:59;;;;;;;14.93;1.88;;;8.10;99.90;;;;;;5039353;28;20572;-69
2023/12/10 05:38:25;;;;;;;14.52;1.77;;;8.10;99.90;;;;;;5033181;28;20188;-68
2023/12/10 05:40:51;;;;;;;11.38;1.85;;;8.10;99.90;;;;;;5038228;28;20041;-68
2023/12/10 05:43:17;;;;;;;12.05;1.40;;;8.10;99.90;;;;;;5033729;28;20044;-68
2023/12/10 05:45:43;;;;;;;12.02;1.60;;;8.10;99.90;;;;;;5032769;28;20076;-68
2023/12/10 05:48:08;;;;;;;10.50;1.52;;;8.10;99.90;;;;;;5029648;28;20699;-68
2023/12/10 05:50:34;;;;;;;11.38;1.63;;;8.00;99.90;;;;;;5033927;28;20111;-67
2023/12/10 05:53:02;;;;;;;12.80;2.55;;;8.00;99.90;;;;;;5033346;28;20596;-67
2023/12/10 05:55:28;;;;;;;11.63;1.60;;;8.00;99.90;;;;;;5008554;28;20076;-67
2023/12/10 05:57:54;;;;;;;12.63;1.90;;;8.00;99.90;;;;;;5033139;28;20159;-67
2023/12/10 06:00:20;;;;;;;14.77;1.50;;;8.00;99.90;;;;;;5041959;28;20044;-68
2023/12/10 06:02:46;;;;;;;9.77;1.73;;;8.00;99.90;;;;;;5032992;28;20053;-66
2023/12/10 06:05:11;;;;;;;11.35;1.77;;;8.00;99.90;;;;;;5032618;28;20048;-69
2023/12/10 06:07:37;;;;;;;7.70;1.52;;;8.00;99.90;;;;;;5029437;28;20048;-66
2023/12/10 06:10:04;;;;;;;15.95;2.95;;;8.00;99.90;;;;;;5039548;28;20045;-67
2023/12/10 06:12:29;;;;;;;19.50;2.35;;;8.00;99.90;;;;;;5039307;28;20533;-66
2023/12/10 06:14:56;;;;;;;16.77;2.17;;;8.00;99.90;;;;;;5037807;28;20152;-67
2023/12/10 06:17:21;;;;;;;22.52;2.80;;;8.10;99.90;;;;;;5037426;28;20061;-66
2023/12/10 06:19:47;;;;;;;22.60;3.13;;;8.10;99.90;;;;;;5032076;28;20075;-66
2023/12/10 06:22:13;;;;;;;17.60;2.17;;;8.10;99.90;;;;;;5028696;28;20266;-66
2023/12/10 06:24:39;;;;;;;18.60;2.67;;;8.10;99.90;;;;;;5035237;28;20045;-67
2023/12/10 06:27:05;;;;;;;22.17;2.83;;;8.10;99.90;;;;;;5018936;28;20574;-66
2023/12/10 06:29:30;;;;;;;18.75;2.38;;;8.10;99.90;;;;;;5034132;28;20036;-67
2023/12/10 06:31:56;;;;;;;16.35;2.65;;;8.10;99.90;;;;;;5032084;28;20096;-66
2023/12/10 06:34:22;;;;;;;15.30;2.45;;;8.10;99.90;;;;;;5028047;28;20041;-67
2023/12/10 06:36:48;;;;;;;19.20;3.05;;;8.10;99.90;;;;;;5018428;28;20053;-67
2023/12/10 06:39:13;;;;;;;20.55;3.40;;;8.10;99.90;;;;;;5028274;28;20045;-67
2023/12/10 06:41:40;;;;;;;20.13;2.38;;;8.10;99.90;;;;;;5029035;28;20492;-67
2023/12/10 06:44:09;;;;;;;17.27;2.75;;;8.10;99.90;;;;;;5013536;28;20399;-67
2023/12/10 06:46:36;;;;;;;17.42;2.28;;;8.10;99.90;;;;;;5024036;28;20049;-66
2023/12/10 06:49:02;;;;;;;14.95;2.13;;;8.10;99.90;;;;;;5038756;28;20045;-66
2023/12/10 06:51:27;;;;;;;21.98;2.40;;;8.10;99.90;;;;;;5027378;28;20828;-66
2023/12/10 06:53:53;;;;;;;17.52;2.75;;;8.10;99.90;;;;;;5025524;28;20081;-67
2023/12/10 06:56:19;;;;;;;15.73;1.95;;;8.20;99.90;;;;;;5040786;28;20410;-66
2023/12/10 06:58:45;;;;;;;18.25;2.40;;;8.20;99.90;;;;;;5030979;28;20044;-66
2023/12/10 07:01:10;;;;;;;9.63;2.38;;;8.20;99.90;;;;;;5027490;28;20103;-67
2023/12/10 07:03:36;;;;;;;16.45;1.80;;;8.20;99.90;;;;;;5031388;28;20682;-67
2023/12/10 07:06:03;;;;;;;10.98;1.60;;;8.20;99.90;;;;;;5027873;28;20052;-66
2023/12/10 07:08:30;;;;;;;12.65;1.90;;;8.20;99.90;;;;;;5035758;28;20053;-66
2023/12/10 07:10:56;;;;;;;12.00;1.70;;;8.20;99.90;;;;;;5026007;28;20081;-66
2023/12/10 07:13:22;;;;;;;10.10;1.63;;;8.20;99.90;;;;;;5029179;28;20142;-66
2023/12/10 07:15:48;;;;;;;11.30;1.60;;;8.20;99.90;;;;;;5033032;28;20045;-66
2023/12/10 07:18:14;;;;;;;6.88;1.42;;;8.20;99.90;;;;;;5032112;28;20051;-66
2023/12/10 07:20:40;;;;;;;11.15;1.33;;;8.20;99.90;;;;;;5041571;28;20107;-66
2023/12/10 07:23:05;;;;;;;11.45;1.42;;;8.20;99.90;;;;;;5037497;28;20135;-66
2023/12/10 07:25:31;;;;;;;11.18;1.50;;;8.20;99.90;;;;;;5039707;28;20049;-70
2023/12/10 07:27:57;;;;;;;8.15;1.13;;;8.20;99.90;;;;;;5037496;28;20075;-66
2023/12/10 07:30:22;;;;;;;10.10;1.13;;;8.20;99.90;;;;;;5012202;28;21973;-67
2023/12/10 07:32:48;;;;;;;8.10;1.38;;;8.20;99.90;;;;;;5037834;28;20493;-67
2023/12/10 07:35:14;;;;;;;5.38;1.23;;;8.20;99.90;;;;;;5029600;28;20091;-67
2023/12/10 07:37:40;;;;;;;6.78;1.10;;;8.20;99.90;;;;;;5036266;28;20908;-66
2023/12/10 07:40:07;;;;;;;9.52;1.20;;;8.20;99.90;;;;;;5017670;28;20049;-66
2023/12/10 07:42:32;;;;;;;17.13;2.15;;;8.20;99.90;;;;;;5038680;28;20394;-66
2023/12/10 07:44:58;;;;;;;19.50;2.10;;;8.20;99.90;;;;;;5038637;28;20041;-65
2023/12/10 07:47:24;;;;;;;19.20;2.42;;;8.30;99.90;;;;;;5040313;28;20056;-67
2023/12/10 07:49:49;;;;;;;14.70;2.03;;;8.30;99.90;;;;;;5030098;28;20879;-67
2023/12/10 07:52:15;;;;;;;15.63;2.10;;;8.30;99.90;;;;;;5021335;28;20041;-66
2023/12/10 07:54:41;;;;;;;15.20;2.28;;;8.30;99.90;;;;;;5028466;28;20124;-67
2023/12/10 07:57:07;;;;;;;16.50;2.25;;;8.30;99.90;;;;;;5034838;28;20041;-66
2023/12/10 07:59:32;;;;;;;13.77;1.77;;;8.30;99.90;;;;;;5037050;28;20124;-66
2023/12/10 08:01:58;;;;;;;9.55;1.75;;;8.30;99.90;;;;;;5028370;28;20834;-67
2023/12/10 08:04:24;;;;;;;9.65;1.80;;;8.30;99.90;;;;;;5030372;28;20128;-66
2023/12/10 08:06:50;;;;;;;13.25;2.03;;;8.00;99.90;;;;;;5040383;28;20132;-66
2023/12/10 08:09:17;;;;;;;6.97;1.20;;;8.30;99.90;;;;;;5033253;28;20057;-66
2023/12/10 08:11:43;;;;;;;7.82;1.33;;;8.30;99.90;;;;;;5035079;28;20121;-68
2023/12/10 08:14:09;;;;;;;8.35;1.52;;;8.30;99.90;;;;;;5032493;28;20038;-67
2023/12/10 08:16:35;;;;;;;7.28;1.45;;;8.30;99.90;;;;;;5035206;28;20052;-66
2023/12/10 08:19:02;;;;;;;16.15;2.83;;;8.30;99.90;;;;;;5048568;28;20049;-66
2023/12/10 08:21:28;;;;;;;14.75;1.90;;;8.30;99.90;;;;;;5026947;28;20049;-67
2023/12/10 08:23:54;;;;;;;16.00;2.70;;;8.30;99.90;;;;;;5022983;28;20213;-66
2023/12/10 08:26:21;;;;;;;23.15;2.53;;;8.30;99.90;;;;;;5021660;28;20044;-65
2023/12/10 08:28:47;;;;;;;22.80;2.50;;;8.30;99.90;;;;;;5027993;28;20050;-68
2023/12/10 08:31:12;;;;;;;16.45;2.35;;;8.30;99.90;;;;;;5019948;28;20247;-66
2023/12/10 08:33:38;;;;;;;24.42;2.92;;;8.30;99.90;;;;;;5024472;28;20394;-67
2023/12/10 08:36:04;;;;;;;15.52;2.00;;;8.30;99.90;;;;;;5030197;28;20041;-68
2023/12/10 08:38:30;;;;;;;13.50;2.05;;;8.30;99.90;;;;;;5010038;28;20132;-67
2023/12/10 08:40:56;;;;;;;18.15;2.28;;;8.30;99.90;;;;;;5022759;28;20140;-68
2023/12/10 08:43:22;;;;;;;24.92;2.75;;;8.30;99.90;;;;;;5020919;28;20099;-67
2023/12/10 08:45:47;;;;;;;17.77;2.13;;;8.30;99.90;;;;;;5023416;28;20053;-67
2023/12/10 08:48:14;;;;;;;26.10;3.33;;;8.30;99.90;;;;;;5027125;28;21745;-67
2023/12/10 08:50:39;;;;;;;26.98;3.42;;;8.30;99.90;;;;;;5026731;28;20046;-67
2023/12/10 08:53:05;;;;;;;28.52;4.00;;;8.20;99.90;;;;;;5028094;28;20061;-67
2023/12/10 08:55:31;;;;;;;27.65;3.13;;;8.30;99.90;;;;;;5022559;28;20048;-67
2023/12/10 08:57:57;;;;;;;35.38;3.28;;;8.20;99.90;;;;;;5004618;28;20049;-67
2023/12/10 09:00:24;;;;;;;24.55;2.88;;;8.30;99.90;;;;;;5029070;28;20049;-67
2023/12/10 09:02:49;;;;;;;21.95;2.75;;;8.20;99.90;;;;;;5023758;28;20091;-66
2023/12/10 09:05:15;;;;;;;21.58;3.20;;;8.20;99.90;;;;;;5030567;28;20049;-67
2023/12/10 09:07:41;;;;;;;25.98;4.07;;;8.20;99.90;;;;;;5004353;28;20508;-67
2023/12/10 09:10:07;;;;;;;28.50;3.33;;;8.20;99.90;;;;;;5024824;28;20245;-67
2023/12/10 09:12:32;;;;;;;33.03;4.18;;;8.20;99.90;;;;;;5033070;28;20040;-66
2023/12/10 09:14:58;;;;;;;17.83;3.13;;;8.20;99.90;;;;;;5027716;28;20037;-67
2023/12/10 09:17:24;;;;;;;25.92;3.25;;;8.20;99.90;;;;;;5029105;28;20048;-66
2023/12/10 09:19:50;;;;;;;23.23;3.00;;;8.20;99.90;;;;;;5029207;28;20338;-67
2023/12/10 09:22:16;;;;;;;18.33;3.33;;;8.20;99.90;;;;;;5024809;28;20229;-66
2023/12/10 09:24:42;;;;;;;22.00;3.25;;;8.20;99.90;;;;;;5027000;28;20045;-67
2023/12/10 09:27:08;;;;;;;20.27;2.45;;;8.20;99.90;;;;;;5020077;28;20052;-66
2023/12/10 09:29:38;;;;;;;14.65;2.00;;;8.20;99.90;;;;;;5027535;28;20098;-67
2023/12/10 09:32:07;;;;;;;16.95;2.50;;;8.20;99.90;;;;;;5030180;28;20053;-67
2023/12/10 09:34:33;;;;;;;22.23;3.03;;;8.20;99.90;;;;;;5031175;28;20045;-67
2023/12/10 09:37:00;;;;;;;18.77;2.55;;;8.20;99.90;;;;;;5023844;28;20133;-67
2023/12/10 09:39:26;;;;;;;15.93;1.88;;;8.20;99.90;;;;;;5019137;28;20446;-67
2023/12/10 09:41:53;;;;;;;24.70;2.90;;;8.20;99.90;;;;;;5017347;28;20414;-67
2023/12/10 09:44:19;;;;;;;22.33;2.15;;;8.20;99.90;;;;;;5013364;28;20463;-66
2023/12/10 09:46:45;;;;;;;22.40;3.47;;;8.20;99.90;;;;;;5013655;28;20037;-67
2023/12/10 09:49:13;;;;;;;27.30;2.85;;;8.20;99.90;;;;;;5018596;28;20222;-68
2023/12/10 09:51:39;;;;;;;24.17;3.25;;;8.20;99.90;;;;;;5022858;28;20045;-67
2023/12/10 09:54:05;;;;;;;25.02;3.40;;;8.20;99.90;;;;;;5021649;28;20320;-67
2023/12/10 09:56:31;;;;;;;31.45;3.42;;;8.20;99.90;;;;;;5019701;28;20056;-67
2023/12/10 09:58:57;;;;;;;31.48;3.55;;;8.20;99.90;;;;;;5018227;28;20042;-67
2023/12/10 10:01:22;;;;;;;24.45;2.97;;;8.20;99.90;;;;;;5022301;28;20150;-67
2023/12/10 10:03:49;;;;;;;22.40;3.55;;;8.20;99.90;;;;;;5028698;28;20103;-67
2023/12/10 10:06:15;;;;;;;24.88;3.20;;;8.20;99.90;;;;;;5013796;28;20053;-66
2023/12/10 10:08:41;;;;;;;23.73;3.35;;;8.30;99.90;;;;;;5021005;28;20047;-67
2023/12/10 10:11:07;;;;;;;26.42;3.00;;;8.20;99.90;;;;;;5026697;28;20485;-67
2023/12/10 10:13:32;;;;;;;29.83;4.13;;;8.30;99.90;;;;;;5038281;28;20559;-67
2023/12/10 10:16:09;;;;;;;28.30;3.90;;;8.30;99.90;;;;;;5027199;28;20130;-68
2023/12/10 10:18:39;;;;;;;29.60;3.95;;;8.30;99.90;;;;;;5021247;28;20071;-68
2023/12/10 10:21:05;;;;;;;25.35;4.43;;;8.20;99.90;;;;;;5024782;28;20088;-67
2023/12/10 10:23:31;;;;;;;24.00;3.65;;;8.30;99.90;;;;;;5025194;28;20072;-67
2023/12/10 10:25:57;;;;;;;22.45;3.78;;;8.30;99.90;;;;;;5028455;28;20422;-67
2023/12/10 10:28:23;;;;;;;28.23;4.45;;;8.30;99.90;;;;;;5021406;28;20048;-68
2023/12/10 10:30:49;;;;;;;28.58;4.43;;;8.20;99.90;;;;;;5021103;28;20493;-67
2023/12/10 10:33:15;;;;;;;29.70;5.10;;;8.20;99.90;;;;;;5033344;28;20063;-67
2023/12/10 10:35:41;;;;;;;35.08;4.15;;;8.30;99.90;;;;;;5031534;28;20048;-68
2023/12/10 10:38:07;;;;;;;34.15;4.53;;;8.20;99.90;;;;;;5047949;28;20060;-68
2023/12/10 10:40:33;;;;;;;31.42;4.53;;;8.20;99.90;;;;;;5053850;28;20041;-68
2023/12/10 10:42:59;;;;;;;36.92;4.45;;;8.30;99.90;;;;;;5036830;28;20073;-68
2023/12/10 10:45:25;;;;;;;36.30;5.32;;;8.20;99.90;;;;;;5023541;28;20609;-67
2023/12/10 10:47:51;;;;;;;38.65;5.15;;;8.30;99.90;;;;;;5032932;28;20448;-68
2023/12/10 10:50:18;;;;;;;35.80;4.40;;;8.30;99.90;;;;;;5030630;28;20041;-68
2023/12/10 10:52:45;;;;;;;36.60;5.32;;;8.30;99.90;;;;;;5041871;28;20060;-68
2023/12/10 10:55:12;;;;;;;39.40;4.70;;;8.30;99.90;;;;;;5042642;28;20049;-68
2023/12/10 10:57:39;;;;;;;40.55;4.43;;;8.30;99.90;;;;;;5033706;28;20056;-67
2023/12/10 11:00:16;;;;;;;29.90;4.38;;;8.30;99.90;;;;;;5046927;28;20078;-68
2023/12/10 11:02:43;;;;;;;39.42;5.75;;;8.30;99.90;;;;;;5031937;28;20498;-68
2023/12/10 11:05:08;;;;;;;38.28;5.22;;;8.30;99.90;;;;;;5033629;28;20049;-67
2023/12/10 11:07:35;;;;;;;45.50;5.65;;;8.30;99.90;;;;;;5030412;28;20402;-68
2023/12/10 11:10:03;;;;;;;36.13;5.22;;;8.30;99.90;;;;;;5036648;28;20108;-68
2023/12/10 11:12:41;;;;;;;38.10;5.68;;;8.30;99.90;;;;;;5032557;28;20047;-68
2023/12/10 11:15:13;;;;;;;34.47;4.88;;;8.30;99.90;;;;;;5027114;28;20037;-68
2023/12/10 11:18:02;;;;;;;42.80;5.65;;;8.30;99.90;;;;;;5031187;28;20048;-68
2023/12/10 11:20:43;;;;;;;35.08;4.90;;;8.30;99.90;;;;;;5021978;28;20096;-68
2023/12/10 11:23:19;;;;;;;42.00;5.30;;;8.30;99.90;;;;;;5039837;28;20051;-67
2023/12/10 11:25:46;;;;;;;33.60;5.18;;;8.30;99.90;;;;;;5043844;28;20433;-67
2023/12/10 11:28:18;;;;;;;32.13;5.03;;;8.40;99.90;;;;;;5029688;28;20042;-68
2023/12/10 11:30:45;;;;;;;36.50;4.78;;;8.40;99.90;;;;;;5033581;28;20060;-67
2023/12/10 11:33:15;;;;;;;38.33;5.97;;;8.40;99.90;;;;;;5040173;28;20264;-68
2023/12/10 11:35:41;;;;;;;40.03;6.25;;;8.40;99.90;;;;;;5029273;28;20050;-68
2023/12/10 11:38:07;;;;;;;35.40;5.15;;;8.40;99.90;;;;;;5038186;28;20049;-68
2023/12/10 11:40:33;;;;;;;38.78;5.13;;;8.40;99.90;;;;;;5038648;28;20060;-67
2023/12/10 11:43:08;;;;;;;39.38;5.13;;;8.40;99.90;;;;;;5038381;28;20500;-68
2023/12/10 11:45:35;;;;;;;36.90;4.65;;;8.40;99.90;;;;;;5011700;28;20129;-69
2023/12/10 11:48:03;;;;;;;33.55;4.22;;;8.40;99.90;;;;;;5021319;28;20049;-67
2023/12/10 11:50:31;;;;;;;35.17;4.97;;;8.40;99.90;;;;;;5045333;28;20049;-68
2023/12/10 11:52:57;;;;;;;34.90;4.22;;;8.40;99.90;;;;;;5040082;28;20131;-68
2023/12/10 11:55:23;;;;;;;39.70;4.90;;;8.40;99.90;;;;;;5039745;28;20128;-68
2023/12/10 11:57:48;;;;;;;33.25;5.53;;;8.40;99.90;;;;;;5028889;28;20629;-66
2023/12/10 12:00:15;;;;;;;37.38;5.63;;;8.40;99.90;;;;;;5062095;28;20140;-68
2023/12/10 12:02:45;;;;;;;47.25;5.97;;;8.40;99.90;;;;;;5031434;28;20041;-67
2023/12/10 12:05:12;;;;;;;36.78;4.60;;;8.40;99.90;;;;;;5026705;28;20550;-67
2023/12/10 12:07:40;;;;;;;29.70;4.80;;;8.40;99.90;;;;;;5022984;28;20048;-67
2023/12/10 12:10:07;;;;;;;36.70;5.78;;;7.90;99.90;;;;;;5017182;28;20049;-67
2023/12/10 12:12:39;;;;;;;39.10;6.00;;;8.40;99.90;;;;;;5037776;28;20506;-67
2023/12/10 12:15:05;;;;;;;41.85;6.55;;;8.40;99.90;;;;;;5026744;28;20095;-68
2023/12/10 12:17:32;;;;;;;38.55;5.80;;;8.40;99.90;;;;;;5028033;28;20551;-67
2023/12/10 12:20:22;;;;;;;38.55;4.97;;;8.30;99.90;;;;;;5029020;28;20099;-67
2023/12/10 12:22:49;;;;;;;43.28;5.25;;;8.40;99.90;;;;;;5029289;28;20049;-68
2023/12/10 12:25:18;;;;;;;40.80;5.85;;;8.30;99.90;;;;;;5030408;28;20572;-67
2023/12/10 12:27:44;;;;;;;37.72;6.25;;;8.40;99.90;;;;;;5030631;28;20457;-68
2023/12/10 12:30:11;;;;;;;31.90;4.78;;;8.40;99.90;;;;;;5028422;28;20632;-67
2023/12/10 12:32:36;;;;;;;35.92;4.88;;;8.30;99.90;;;;;;5034167;28;20037;-67
2023/12/10 12:35:03;;;;;;;42.45;5.43;;;8.40;99.90;;;;;;5026431;28;20117;-67
2023/12/10 12:37:29;;;;;;;30.42;5.20;;;8.40;99.90;;;;;;5028314;28;20402;-68
2023/12/10 12:39:56;;;;;;;35.08;5.00;;;8.40;99.90;;;;;;5026982;28;20037;-68
2023/12/10 12:42:23;;;;;;;36.83;4.65;;;8.40;99.90;;;;;;5024029;28;20064;-67
2023/12/10 12:44:49;;;;;;;35.45;4.80;;;8.40;99.90;;;;;;5023876;28;20104;-68